Time;durP1;ratioP1;P1;durP2;ratioP2;P2;SDS_P1;SDS_P2;PMS_P1;PMS_P2;Temp;Humidity;BMP_temperature;BMP_pressure;BME280_temperature;BME280_humidity;BME280_pressure;Samples;Min_cycle;Max_cycle;Signal;HPM_P1;HPM_P2
2023/05/15 00:00:55;;;;;;;;;;;19.50;59.00;;;;;;5074939;28;20296;-67
2023/05/15 00:03:21;;;;;;;;;;;19.50;59.10;;;;;;5073648;28;19924;-67
2023/05/15 00:05:46;;;;;;;;;;;19.50;59.00;;;;;;5073869;28;19974;-67
2023/05/15 00:08:12;;;;;;;;;;;19.40;59.00;;;;;;5075036;28;19921;-68
2023/05/15 00:10:37;;;;;;;;;;;19.40;59.00;;;;;;5074875;28;20011;-67
2023/05/15 00:13:03;;;;;;;;;;;19.40;59.00;;;;;;5072601;28;19920;-68
2023/05/15 00:15:28;;;;;;;;;;;19.40;59.00;;;;;;5074767;28;19963;-68
2023/05/15 00:17:54;;;;;;;;;;;19.40;59.10;;;;;;5073407;28;19920;-68
2023/05/15 00:20:19;;;;;;;;;;;19.40;59.10;;;;;;5074635;28;20007;-68
2023/05/15 00:22:45;;;;;;;;;;;19.40;59.10;;;;;;5073561;28;19927;-67
2023/05/15 00:25:14;;;;;;;;;;;19.40;59.10;;;;;;5074784;28;19962;-68
2023/05/15 00:27:39;;;;;;;;;;;19.40;59.10;;;;;;5073207;28;20384;-67
2023/05/15 00:30:05;;;;;;;;;;;19.40;59.10;;;;;;5073527;28;19920;-68
2023/05/15 00:32:31;;;;;;;;;;;19.30;59.10;;;;;;5073411;28;19920;-67
2023/05/15 00:34:56;;;;;;;;;;;19.30;59.10;;;;;;5073358;28;19966;-67
2023/05/15 00:37:22;;;;;;;;;;;19.30;59.10;;;;;;5072629;28;20398;-67
2023/05/15 00:39:48;;;;;;;;;;;19.30;59.10;;;;;;5072989;28;19924;-67
2023/05/15 00:42:14;;;;;;;;;;;19.30;59.10;;;;;;5074227;28;19925;-67
2023/05/15 00:44:40;;;;;;;;;;;19.30;59.10;;;;;;5073212;28;19985;-67
2023/05/15 00:47:06;;;;;;;;;;;19.30;59.10;;;;;;5072769;28;19920;-67
2023/05/15 00:49:34;;;;;;;;;;;19.30;59.20;;;;;;5073106;28;19931;-68
2023/05/15 00:52:02;;;;;;;;;;;19.30;59.20;;;;;;5072582;28;20011;-67
2023/05/15 00:54:28;;;;;;;;;;;19.30;59.20;;;;;;5073089;28;20399;-68
2023/05/15 00:56:55;;;;;;;;;;;19.20;59.10;;;;;;5072879;28;20011;-67
2023/05/15 00:59:24;;;;;;;;;;;19.20;59.20;;;;;;5073880;28;19925;-67
2023/05/15 01:01:49;;;;;;;;;;;19.20;59.20;;;;;;5073142;28;19963;-68
2023/05/15 01:04:15;;;;;;;;;;;19.20;59.20;;;;;;5072441;28;20009;-68
2023/05/15 01:06:40;;;;;;;;;;;19.20;59.20;;;;;;5072544;28;19931;-67
2023/05/15 01:09:07;;;;;;;;;;;19.20;59.30;;;;;;5072750;28;20319;-66
2023/05/15 01:11:35;;;;;;;;;;;19.30;59.30;;;;;;5072693;28;19943;-67
2023/05/15 01:14:03;;;;;;;;;;;19.60;59.00;;;;;;5072604;28;20330;-68
2023/05/15 01:16:28;;;;;;;;;;;19.90;58.40;;;;;;5073612;28;19927;-67
2023/05/15 01:18:54;;;;;;;;;;;20.20;57.70;;;;;;5072069;28;19925;-68
2023/05/15 01:24:34;;;;;;;;;;;21.00;55.90;;;;;;5110321;27;19916;-68
2023/05/15 01:27:06;;;;;;;;;;;21.40;54.80;;;;;;5108839;28;19927;-67
2023/05/15 01:29:52;;;;;;;;;;;21.90;53.90;;;;;;5110111;28;20295;-68
2023/05/15 01:32:18;;;;;;;;;;;22.10;53.20;;;;;;5110065;28;20005;-67
2023/05/15 01:34:50;;;;;;;;;;;22.40;52.60;;;;;;5109102;28;19927;-68
2023/05/15 01:37:18;;;;;;;;;;;22.60;52.10;;;;;;5110164;28;19924;-68
2023/05/15 01:39:44;;;;;;;;;;;22.70;51.70;;;;;;5108941;28;20363;-68
2023/05/15 01:42:12;;;;;;;;;;;22.70;51.50;;;;;;5108822;28;19928;-68
2023/05/15 01:44:41;;;;;;;;;;;22.70;51.40;;;;;;5108851;28;19920;-68
2023/05/15 01:47:11;;;;;;;;;;;22.70;51.40;;;;;;5108627;28;19923;-67
2023/05/15 01:49:37;;;;;;;;;;;22.60;51.40;;;;;;5109725;28;19928;-67
2023/05/15 01:52:13;;;;;;;;;;;22.50;51.50;;;;;;5108472;28;19920;-67
2023/05/15 01:54:39;;;;;;;;;;;22.40;51.60;;;;;;5108303;28;19924;-68
2023/05/15 01:57:05;;;;;;;;;;;22.40;51.80;;;;;;5109585;28;19927;-67
2023/05/15 01:59:31;;;;;;;;;;;22.20;51.90;;;;;;5108647;28;19926;-67
2023/05/15 02:01:57;;;;;;;;;;;22.20;52.00;;;;;;5109665;28;20018;-68
2023/05/15 02:04:25;;;;;;;;;;;22.10;52.20;;;;;;5108514;28;20061;-68
2023/05/15 02:06:52;;;;;;;;;;;22.00;52.40;;;;;;5108235;28;19920;-68
2023/05/15 02:09:19;;;;;;;;;;;21.80;52.50;;;;;;5108401;28;19920;-68
2023/05/15 02:11:44;;;;;;;;;;;21.80;52.70;;;;;;5108097;28;19923;-68
2023/05/15 02:14:11;;;;;;;;;;;21.70;52.90;;;;;;5108379;28;19920;-68
2023/05/15 02:16:37;;;;;;;;;;;21.60;53.00;;;;;;5107968;28;19924;-68
2023/05/15 02:19:02;;;;;;;;;;;21.50;53.20;;;;;;5108296;28;19942;-67
2023/05/15 02:21:28;;;;;;;;;;;21.40;53.30;;;;;;5109102;28;19920;-68
2023/05/15 02:23:53;;;;;;;;;;;21.30;53.50;;;;;;5107502;28;20010;-68
2023/05/15 02:26:38;;;;;;;;;;;21.20;53.70;;;;;;5107993;28;19924;-68
2023/05/15 02:32:07;;;;;;;;;;;21.00;54.10;;;;;;5110656;27;19912;-67
2023/05/15 02:37:19;;;;;;;;;;;20.90;54.30;;;;;;5109616;27;19919;-68
2023/05/15 02:39:46;;;;;;;;;;;21.00;54.30;;;;;;5108690;28;19962;-68
2023/05/15 02:42:12;;;;;;;;;;;21.00;54.10;;;;;;5109147;28;19924;-68
2023/05/15 02:44:39;;;;;;;;;;;21.10;53.90;;;;;;5108945;28;19920;-67
2023/05/15 02:47:05;;;;;;;;;;;21.20;53.70;;;;;;5109932;28;19943;-68
2023/05/15 02:49:30;;;;;;;;;;;21.30;53.40;;;;;;5110073;28;20367;-67
2023/05/15 02:51:56;;;;;;;;;;;21.40;53.10;;;;;;5110170;28;19920;-68
2023/05/15 02:54:21;;;;;;;;;;;21.50;52.80;;;;;;5108631;28;20371;-67
2023/05/15 02:56:47;;;;;;;;;;;21.60;53.40;;;;;;5108551;28;19928;-67
2023/05/15 02:59:17;;;;;;;;;;;21.60;52.50;;;;;;5108194;28;19920;-67
2023/05/15 03:01:43;;;;;;;;;;;21.60;52.60;;;;;;5108719;28;19963;-67
2023/05/15 03:04:08;;;;;;;;;;;21.70;52.30;;;;;;5108771;28;20405;-67
2023/05/15 03:06:34;;;;;;;;;;;21.60;52.10;;;;;;5109792;28;20428;-67
2023/05/15 03:08:59;;;;;;;;;;;21.70;52.10;;;;;;5109787;28;19920;-67
2023/05/15 03:11:25;;;;;;;;;;;21.70;52.10;;;;;;5108353;28;19920;-67
2023/05/15 03:13:50;;;;;;;;;;;21.70;52.00;;;;;;5108329;28;19920;-68
2023/05/15 03:16:16;;;;;;;;;;;21.70;52.00;;;;;;5108275;28;19924;-68
2023/05/15 03:18:41;;;;;;;;;;;21.70;52.00;;;;;;5109360;28;19926;-68
2023/05/15 03:21:07;;;;;;;;;;;21.60;52.00;;;;;;5108601;28;20386;-68
2023/05/15 03:23:32;;;;;;;;;;;21.60;51.90;;;;;;5108057;28;19923;-67
2023/05/15 03:25:57;;;;;;;;;;;21.70;52.00;;;;;;5108387;28;19920;-67
2023/05/15 03:28:23;;;;;;;;;;;21.60;52.00;;;;;;5109270;28;19926;-67
2023/05/15 03:30:48;;;;;;;;;;;21.60;52.00;;;;;;5109358;28;20302;-67
2023/05/15 03:33:14;;;;;;;;;;;21.60;52.00;;;;;;5109097;28;19927;-67
2023/05/15 03:35:40;;;;;;;;;;;21.50;52.10;;;;;;5107827;28;19967;-68
2023/05/15 03:38:05;;;;;;;;;;;21.60;52.20;;;;;;5107984;28;20392;-68
2023/05/15 03:40:31;;;;;;;;;;;21.50;52.10;;;;;;5108202;28;19920;-68
2023/05/15 03:42:57;;;;;;;;;;;21.50;52.20;;;;;;5107089;28;19974;-68
2023/05/15 03:45:22;;;;;;;;;;;21.40;52.20;;;;;;5108031;28;19928;-67
2023/05/15 03:47:48;;;;;;;;;;;21.40;52.20;;;;;;5098836;28;20352;-67
2023/05/15 03:50:14;;;;;;;;;;;21.40;52.20;;;;;;5094002;28;19927;-68
2023/05/15 03:52:39;;;;;;;;;;;21.40;52.20;;;;;;5094144;28;19992;-68
2023/05/15 03:55:05;;;;;;;;;;;21.40;52.10;;;;;;5094135;28;20034;-68
2023/05/15 03:57:32;;;;;;;;;;;21.40;52.20;;;;;;5095237;28;19971;-68
2023/05/15 03:59:57;;;;;;;;;;;21.40;52.20;;;;;;5095122;28;19920;-68
2023/05/15 04:02:23;;;;;;;;;;;21.40;52.10;;;;;;5095190;28;19920;-68
2023/05/15 04:04:48;;;;;;;;;;;21.40;52.10;;;;;;5094941;28;19924;-67
2023/05/15 04:07:14;;;;;;;;;;;21.40;52.10;;;;;;5094084;28;19975;-68
2023/05/15 04:09:39;;;;;;;;;;;21.40;52.00;;;;;;5093293;28;19927;-68
2023/05/15 04:12:05;;;;;;;;;;;21.40;52.00;;;;;;5093681;28;20429;-67
2023/05/15 04:14:30;;;;;;;;;;;21.40;51.90;;;;;;5093893;28;20015;-68
2023/05/15 04:16:56;;;;;;;;;;;21.40;51.80;;;;;;5093471;28;19982;-68
2023/05/15 04:19:21;;;;;;;;;;;21.40;51.70;;;;;;5093744;28;19959;-68
2023/05/15 04:21:47;;;;;;;;;;;21.50;51.60;;;;;;5093497;28;19948;-68
2023/05/15 04:24:12;;;;;;;;;;;21.50;51.50;;;;;;5093376;28;19920;-67
2023/05/15 04:26:38;;;;;;;;;;;21.50;51.50;;;;;;5093413;28;19920;-67
2023/05/15 04:29:03;;;;;;;;;;;21.50;51.40;;;;;;5093562;28;19920;-68
2023/05/15 04:31:30;;;;;;;;;;;21.50;51.30;;;;;;5093648;28;20031;-67
2023/05/15 04:33:55;;;;;;;;;;;21.60;52.10;;;;;;5094471;28;19982;-67
2023/05/15 04:36:21;;;;;;;;;;;21.60;51.30;;;;;;5092761;28;19975;-68
2023/05/15 04:38:47;;;;;;;;;;;21.60;51.20;;;;;;5093117;28;19920;-67
2023/05/15 04:41:12;;;;;;;;;;;21.50;51.10;;;;;;5093370;28;19920;-67
2023/05/15 04:43:38;;;;;;;;;;;21.60;51.20;;;;;;5093066;28;19927;-67
2023/05/15 04:46:03;;;;;;;;;;;21.60;51.10;;;;;;5093222;28;19919;-67
2023/05/15 04:48:29;;;;;;;;;;;21.60;51.10;;;;;;5092965;28;19931;-67
2023/05/15 04:50:54;;;;;;;;;;;21.60;51.00;;;;;;5093015;28;19920;-68
2023/05/15 04:53:20;;;;;;;;;;;21.60;51.00;;;;;;5093154;28;19924;-67
2023/05/15 04:55:46;;;;;;;;;;;21.60;50.90;;;;;;5092872;28;19974;-67
2023/05/15 04:58:11;;;;;;;;;;;21.60;50.90;;;;;;5093604;28;20374;-67
2023/05/15 05:00:37;;;;;;;;;;;21.60;50.90;;;;;;5092346;28;20383;-68
2023/05/15 05:03:03;;;;;;;;;;;21.60;50.90;;;;;;5094391;28;20318;-67
2023/05/15 05:05:29;;;;;;;;;;;21.60;50.80;;;;;;5093889;28;19928;-68
2023/05/15 05:07:54;;;;;;;;;;;21.60;50.90;;;;;;5094233;28;19926;-68
2023/05/15 05:10:20;;;;;;;;;;;21.50;50.80;;;;;;5092832;28;19928;-68
2023/05/15 05:12:45;;;;;;;;;;;21.50;50.90;;;;;;5093932;28;20408;-68
2023/05/15 05:15:11;;;;;;;;;;;21.50;50.90;;;;;;5092372;28;19924;-68
2023/05/15 05:17:36;;;;;;;;;;;21.50;50.90;;;;;;5092608;28;19920;-67
2023/05/15 05:20:03;;;;;;;;;;;21.50;50.90;;;;;;5093566;28;19977;-68
2023/05/15 05:22:29;;;;;;;;;;;21.50;50.90;;;;;;5092472;28;19982;-68
2023/05/15 05:24:55;;;;;;;;;;;21.50;50.90;;;;;;5092280;28;19967;-66
2023/05/15 05:27:20;;;;;;;;;;;21.50;50.90;;;;;;5091285;28;20380;-70
2023/05/15 05:29:46;;;;;;;;;;;21.40;50.90;;;;;;5090653;28;20439;-68
2023/05/15 05:32:11;;;;;;;;;;;21.40;51.00;;;;;;5092567;28;19972;-70
2023/05/15 05:34:37;;;;;;;;;;;21.40;50.90;;;;;;5091109;28;20046;-70
2023/05/15 05:37:02;;;;;;;;;;;21.50;51.00;;;;;;5090757;28;19981;-71
2023/05/15 05:39:28;;;;;;;;;;;21.60;50.90;;;;;;5073874;28;19931;-70
2023/05/15 05:41:53;;;;;;;;;;;21.60;50.70;;;;;;5087778;28;19920;-70
2023/05/15 05:44:19;;;;;;;;;;;21.60;50.70;;;;;;5088114;28;19923;-71
2023/05/15 05:46:44;;;;;;;;;;;21.60;50.80;;;;;;5088543;28;19920;-72
2023/05/15 05:49:10;;;;;;;;;;;21.60;50.70;;;;;;5089779;28;19960;-71
2023/05/15 05:51:36;;;;;;;;;;;21.60;50.50;;;;;;5090221;28;20007;-71
2023/05/15 05:54:01;;;;;;;;;;;21.70;50.50;;;;;;5090451;28;19935;-71
2023/05/15 05:56:27;;;;;;;;;;;21.70;50.50;;;;;;5120562;27;19931;-71
2023/05/15 05:58:52;;;;;;;;;;;21.70;50.40;;;;;;5091667;28;19920;-71
2023/05/15 06:01:18;;;;;;;;;;;21.70;50.50;;;;;;5089100;28;20349;-71
2023/05/15 06:03:43;;;;;;;;;;;21.60;50.50;;;;;;5082891;28;19928;-72
2023/05/15 06:06:09;;;;;;;;;;;21.60;50.50;;;;;;5077511;28;19958;-72
2023/05/15 06:08:35;;;;;;;;;;;21.50;50.50;;;;;;5085154;28;19928;-71
2023/05/15 06:11:00;;;;;;;;;;;21.50;50.60;;;;;;5088251;28;19924;-67
2023/05/15 06:13:26;;;;;;;;;;;21.50;50.70;;;;;;5086723;28;20335;-71
2023/05/15 06:15:51;;;;;;;;;;;21.50;50.70;;;;;;5090352;28;20015;-71
2023/05/15 06:18:17;;;;;;;;;;;21.40;50.70;;;;;;5088118;28;19942;-72
2023/05/15 06:20:42;;;;;;;;;;;21.40;50.70;;;;;;5078963;28;19931;-72
2023/05/15 06:23:08;;;;;;;;;;;21.40;50.70;;;;;;5061529;28;20047;-70
2023/05/15 06:25:34;;;;;;;;;;;21.40;50.70;;;;;;5071842;28;19920;-67
2023/05/15 06:27:59;;;;;;;;;;;21.40;50.60;;;;;;5074808;28;19928;-72
2023/05/15 06:30:25;;;;;;;;;;;21.40;50.70;;;;;;5072401;28;20280;-67
2023/05/15 06:32:51;;;;;;;;;;;21.30;51.40;;;;;;5105295;27;19928;-72
2023/05/15 06:35:17;;;;;;;;;;;21.40;50.70;;;;;;5074174;28;20302;-71
2023/05/15 06:37:43;;;;;;;;;;;21.40;50.70;;;;;;5067538;28;19932;-70
2023/05/15 06:40:08;;;;;;;;;;;21.40;50.70;;;;;;5073221;28;19928;-71
2023/05/15 06:42:34;;;;;;;;;;;21.40;50.70;;;;;;5076315;28;19971;-71
2023/05/15 06:45:00;;;;;;;;;;;21.40;50.70;;;;;;5071326;28;19994;-71
2023/05/15 06:47:25;;;;;;;;;;;21.40;50.80;;;;;;5069652;28;19924;-71
2023/05/15 06:49:52;;;;;;;;;;;21.30;50.70;;;;;;5069473;28;19920;-71
2023/05/15 06:52:19;;;;;;;;;;;21.30;50.60;;;;;;5082397;28;19928;-69
2023/05/15 06:54:44;;;;;;;;;;;21.30;50.60;;;;;;5107425;28;19932;-71
2023/05/15 06:57:10;;;;;;;;;;;21.30;50.50;;;;;;5069760;28;19924;-68
2023/05/15 06:59:35;;;;;;;;;;;21.30;50.50;;;;;;5073130;28;20378;-68
2023/05/15 07:02:01;;;;;;;;;;;21.30;50.60;;;;;;5070373;28;19924;-67
2023/05/15 07:04:27;;;;;;;;;;;21.30;50.70;;;;;;5065792;28;19970;-69
2023/05/15 07:06:53;;;;;;;;;;;21.30;50.60;;;;;;5070346;28;20019;-67
2023/05/15 07:09:18;;;;;;;;;;;21.30;50.70;;;;;;5103230;28;19936;-68
2023/05/15 07:11:44;;;;;;;;;;;21.20;50.70;;;;;;5069978;28;19932;-67
2023/05/15 07:14:09;;;;;;;;;;;21.30;50.80;;;;;;5067449;28;19925;-67
2023/05/15 07:16:35;;;;;;;;;;;21.20;50.80;;;;;;5067804;28;20358;-73
2023/05/15 07:19:00;;;;;;;;;;;21.30;51.00;;;;;;5067232;28;19924;-71
2023/05/15 07:21:26;;;;;;;;;;;21.30;51.10;;;;;;5070293;28;19935;-72
2023/05/15 07:23:51;;;;;;;;;;;21.30;51.20;;;;;;5068601;28;20555;-69
2023/05/15 07:26:17;;;;;;;;;;;21.30;51.30;;;;;;5070402;28;19924;-68
2023/05/15 07:28:42;;;;;;;;;;;21.30;51.50;;;;;;5073779;28;20011;-70
2023/05/15 07:31:08;;;;;;;;;;;21.30;51.60;;;;;;5106426;27;19932;-72
2023/05/15 07:33:33;;;;;;;;;;;21.30;51.90;;;;;;5071071;28;20378;-68
2023/05/15 07:35:59;;;;;;;;;;;21.30;51.90;;;;;;5083242;28;19932;-67
2023/05/15 07:38:24;;;;;;;;;;;21.30;52.00;;;;;;5078619;28;19942;-68
2023/05/15 07:40:50;;;;;;;;;;;21.30;52.10;;;;;;5074747;28;20057;-67
2023/05/15 07:43:16;;;;;;;;;;;21.30;52.20;;;;;;5110100;27;19920;-68
2023/05/15 07:45:41;;;;;;;;;;;21.30;52.30;;;;;;5073076;28;19924;-68
2023/05/15 07:48:22;;;;;;;;;;;21.30;52.40;;;;;;5074449;27;20100;-70
2023/05/15 07:50:49;;;;;;;;;;;21.30;52.40;;;;;;5073741;28;20026;-66
2023/05/15 07:53:15;;;;;;;;;;;21.40;52.60;;;;;;5106489;27;19968;-70
2023/05/15 07:55:41;;;;;;;;;;;21.30;52.70;;;;;;5093606;28;19928;-69
2023/05/15 07:58:07;;;;;;;;;;;21.30;52.70;;;;;;5091303;28;19924;-67
2023/05/15 08:00:33;;;;;;;;;;;21.30;52.70;;;;;;5066148;28;20304;-66
2023/05/15 08:02:58;;;;;;;;;;;21.20;52.80;;;;;;5070819;28;19997;-66
2023/05/15 08:05:24;;;;;;;;;;;21.20;53.00;;;;;;5092870;28;19924;-68
2023/05/15 08:07:49;;;;;;;;;;;21.20;53.20;;;;;;5073554;28;19920;-67
2023/05/15 08:10:15;;;;;;;;;;;21.30;53.30;;;;;;5072312;28;19931;-67
2023/05/15 08:12:45;;;;;;;;;;;21.20;53.30;;;;;;5093095;28;20315;-67
2023/05/15 08:15:10;;;;;;;;;;;21.30;53.40;;;;;;5074112;28;19924;-68
2023/05/15 08:17:36;;;;;;;;;;;21.20;53.40;;;;;;5071125;28;20629;-67
2023/05/15 08:20:01;;;;;;;;;;;21.20;53.50;;;;;;5091023;27;19986;-64
2023/05/15 08:22:29;;;;;;;;;;;21.20;53.60;;;;;;5094272;27;19919;-64
2023/05/15 08:24:54;;;;;;;;;;;21.20;53.80;;;;;;5079746;28;20622;-64
2023/05/15 08:27:20;;;;;;;;;;;21.10;53.70;;;;;;5073373;28;19927;-64
2023/05/15 08:29:46;;;;;;;;;;;21.10;53.50;;;;;;5072101;28;19923;-66
2023/05/15 08:32:11;;;;;;;;;;;21.00;53.40;;;;;;5101854;27;19955;-67
2023/05/15 08:34:37;;;;;;;;;;;21.00;53.40;;;;;;5069422;28;20104;-67
2023/05/15 08:37:03;;;;;;;;;;;21.00;54.30;;;;;;5068535;28;19928;-66
2023/05/15 08:39:28;;;;;;;;;;;20.90;53.60;;;;;;5072388;28;19970;-67
2023/05/15 08:44:33;;;;;;;;;;;20.80;53.80;;;;;;5064721;27;19927;-66
2023/05/15 08:46:59;;;;;;;;;;;20.70;53.90;;;;;;5059483;28;20562;-66
2023/05/15 08:52:05;;;;;;;;;;;20.70;54.20;;;;;;5070072;27;20380;-68
2023/05/15 08:54:30;;;;;;;;;;;20.70;54.30;;;;;;5105252;27;19935;-66
2023/05/15 08:56:56;;;;;;;;;;;20.70;54.50;;;;;;5065020;28;20520;-67
2023/05/15 08:59:22;;;;;;;;;;;20.70;54.70;;;;;;5104545;27;20641;-67
2023/05/15 09:01:48;;;;;;;;;;;20.70;54.80;;;;;;5076069;28;20019;-67
2023/05/15 09:04:14;;;;;;;;;;;20.70;55.00;;;;;;5073312;28;20302;-66
2023/05/15 09:06:40;;;;;;;;;;;20.70;55.00;;;;;;5070585;28;19928;-66
2023/05/15 09:09:07;;;;;;;;;;;20.80;55.20;;;;;;5105946;27;19924;-67
2023/05/15 09:11:33;;;;;;;;;;;20.80;55.00;;;;;;5073685;28;20029;-67
2023/05/15 09:13:58;;;;;;;;;;;20.90;55.10;;;;;;5072405;28;19977;-69
2023/05/15 09:16:24;;;;;;;;;;;20.90;55.10;;;;;;5070982;28;19928;-68
2023/05/15 09:18:50;;;;;;;;;;;20.90;55.20;;;;;;5070934;28;20421;-67
2023/05/15 09:21:32;;;;;;;;;;;20.90;55.30;;;;;;5103817;27;19985;-68
2023/05/15 09:24:17;;;;;;;;;;;20.90;55.40;;;;;;5066686;28;19928;-68
2023/05/15 09:26:43;;;;;;;;;;;20.90;55.30;;;;;;5069399;28;20455;-67
2023/05/15 09:29:09;;;;;;;;;;;20.90;55.30;;;;;;5073365;28;20354;-67
2023/05/15 09:31:34;;;;;;;;;;;20.90;55.30;;;;;;5068649;28;19935;-68
2023/05/15 09:34:00;;;;;;;;;;;21.00;55.30;;;;;;5068534;28;20372;-67
2023/05/15 09:36:27;;;;;;;;;;;21.00;55.20;;;;;;5064760;28;19920;-69
2023/05/15 09:38:57;;;;;;;;;;;21.00;55.30;;;;;;5065014;28;19931;-68
2023/05/15 09:41:24;;;;;;;;;;;21.00;55.20;;;;;;5098960;27;20133;-67
2023/05/15 09:43:50;;;;;;;;;;;21.00;55.30;;;;;;5065545;28;20420;-68
2023/05/15 09:46:18;;;;;;;;;;;21.00;55.40;;;;;;5066430;28;19989;-68
2023/05/15 09:48:44;;;;;;;;;;;21.00;55.60;;;;;;5073434;28;19921;-69
2023/05/15 09:51:17;;;;;;;;;;;21.10;55.60;;;;;;5061706;28;20358;-69
2023/05/15 09:53:47;;;;;;;;;;;21.10;55.50;;;;;;5071159;28;20429;-69
2023/05/15 09:56:13;;;;;;;;;;;21.10;55.40;;;;;;5069076;28;19923;-68
2023/05/15 09:58:50;;;;;;;;;;;21.10;55.50;;;;;;5064387;28;19924;-67
2023/05/15 10:01:18;;;;;;;;;;;21.10;55.70;;;;;;5071128;28;20097;-68
2023/05/15 10:03:44;;;;;;;;;;;21.20;55.40;;;;;;5049686;28;20018;-68
2023/05/15 10:06:16;;;;;;;;;;;21.10;55.40;;;;;;5082506;27;19927;-67
2023/05/15 10:08:49;;;;;;;;;;;21.20;55.20;;;;;;5083235;27;19930;-67
2023/05/15 10:11:15;;;;;;;;;;;21.20;55.20;;;;;;5058253;28;20015;-67
2023/05/15 10:13:40;;;;;;;;;;;21.20;55.00;;;;;;5088357;27;19924;-66
2023/05/15 10:16:06;;;;;;;;;;;21.20;54.90;;;;;;5057043;28;20010;-65
2023/05/15 10:18:32;;;;;;;;;;;21.20;54.90;;;;;;5055037;28;20041;-67
2023/05/15 10:21:02;;;;;;;;;;;21.20;54.90;;;;;;5050318;28;20010;-67
2023/05/15 10:23:29;;;;;;;;;;;21.20;54.70;;;;;;5047581;28;19924;-67
2023/05/15 10:26:05;;;;;;;;;;;21.20;54.70;;;;;;5053477;28;20007;-66
2023/05/15 10:28:32;;;;;;;;;;;21.20;54.70;;;;;;5050646;28;19924;-66
2023/05/15 10:30:59;;;;;;;;;;;21.20;54.70;;;;;;5060017;28;19928;-67
2023/05/15 10:33:25;;;;;;;;;;;21.20;54.50;;;;;;5058664;28;19925;-68
2023/05/15 10:35:51;;;;;;;;;;;21.20;54.50;;;;;;5085219;27;19924;-67
2023/05/15 10:38:18;;;;;;;;;;;21.20;54.50;;;;;;5057507;28;20419;-67
2023/05/15 10:40:43;;;;;;;;;;;21.20;54.50;;;;;;5053771;28;19931;-67
2023/05/15 10:43:10;;;;;;;;;;;21.20;54.40;;;;;;5088276;27;19924;-67
2023/05/15 10:45:36;;;;;;;;;;;21.20;54.40;;;;;;5081708;27;20356;-67
2023/05/15 10:48:04;;;;;;;;;;;21.20;54.40;;;;;;5057395;28;20011;-68
2023/05/15 10:50:29;;;;;;;;;;;21.20;54.40;;;;;;5059420;28;20259;-68
2023/05/15 10:52:55;;;;;;;;;;;21.20;54.50;;;;;;5053909;28;20019;-68
2023/05/15 10:55:21;;;;;;;;;;;21.20;54.60;;;;;;5086009;27;20472;-68
2023/05/15 10:57:47;;;;;;;;;;;21.20;54.60;;;;;;5087392;27;20007;-68
2023/05/15 11:03:03;;;;;;;;;;;21.20;55.10;;;;;;5057780;27;20142;-66
2023/05/15 11:05:50;;;;;;;;;;;21.20;55.20;;;;;;5051213;28;19936;-66
2023/05/15 11:10:56;;;;;;;;;;;21.30;55.40;;;;;;5085108;27;19927;-66
2023/05/15 11:13:21;;;;;;;;;;;21.30;55.60;;;;;;5076985;28;19928;-70
2023/05/15 11:15:47;;;;;;;;;;;21.40;55.90;;;;;;5098445;27;20064;-68
2023/05/15 11:18:13;;;;;;;;;;;21.40;55.90;;;;;;5071110;28;19920;-68
2023/05/15 11:20:40;;;;;;;;;;;21.40;55.90;;;;;;5072280;28;19931;-69
2023/05/15 11:23:06;;;;;;;;;;;21.40;56.70;;;;;;5107394;27;19924;-68
2023/05/15 11:25:33;;;;;;;;;;;21.40;55.90;;;;;;5071980;28;20341;-70
2023/05/15 11:27:58;;;;;;;;;;;21.40;56.00;;;;;;5072079;28;20017;-69
2023/05/15 11:30:39;;;;;;;;;;;21.40;56.20;;;;;;5068832;28;20743;-70
2023/05/15 11:33:08;;;;;;;;;;;21.40;56.40;;;;;;5067013;28;19931;-70
2023/05/15 11:35:38;;;;;;;;;;;21.40;56.50;;;;;;5079791;28;20367;-71
2023/05/15 11:41:02;;;;;;;;;;;21.40;57.00;;;;;;5081629;27;19927;-68
2023/05/15 11:43:28;;;;;;;;;;;21.40;57.20;;;;;;5088655;28;20045;-69
2023/05/15 11:45:55;;;;;;;;;;;21.40;57.00;;;;;;5084238;28;19931;-70
2023/05/15 11:48:21;;;;;;;;;;;21.40;57.30;;;;;;5088806;28;20348;-72
2023/05/15 11:50:47;;;;;;;;;;;21.40;57.40;;;;;;5084870;28;19935;-71
2023/05/15 11:53:13;;;;;;;;;;;21.40;57.40;;;;;;5086421;28;19927;-68
2023/05/15 11:55:40;;;;;;;;;;;21.40;57.60;;;;;;5088585;28;19924;-69
2023/05/15 11:58:10;;;;;;;;;;;21.40;57.50;;;;;;5085882;28;19924;-73
2023/05/15 12:00:36;;;;;;;;;;;21.40;57.50;;;;;;5072919;28;19932;-68
2023/05/15 12:03:02;;;;;;;;;;;21.40;57.50;;;;;;5083254;28;19943;-70
2023/05/15 12:05:28;;;;;;;;;;;21.50;57.70;;;;;;5116933;27;19925;-71
2023/05/15 12:07:53;;;;;;;;;;;21.40;57.80;;;;;;5087204;28;20503;-69
2023/05/15 12:10:19;;;;;;;;;;;21.40;57.70;;;;;;5082710;28;19932;-73
2023/05/15 12:12:45;;;;;;;;;;;21.40;57.70;;;;;;5082353;28;20311;-73
2023/05/15 12:15:11;;;;;;;;;;;21.50;57.90;;;;;;5112218;27;19971;-68
2023/05/15 12:17:38;;;;;;;;;;;21.40;57.90;;;;;;5085745;28;19967;-68
2023/05/15 12:20:07;;;;;;;;;;;21.40;57.70;;;;;;5083273;28;20089;-68
2023/05/15 12:22:41;;;;;;;;;;;21.50;58.50;;;;;;5088640;28;20298;-69
2023/05/15 12:25:07;;;;;;;;;;;21.50;58.00;;;;;;5090147;28;19928;-66
2023/05/15 12:27:33;;;;;;;;;;;21.50;57.90;;;;;;5084807;28;20280;-70
2023/05/15 12:30:00;;;;;;;;;;;21.50;57.70;;;;;;5083277;28;19928;-71
2023/05/15 12:32:26;;;;;;;;;;;21.50;57.80;;;;;;5085392;28;19928;-67
2023/05/15 12:34:51;;;;;;;;;;;21.50;58.00;;;;;;5090538;28;19927;-71
2023/05/15 12:37:19;;;;;;;;;;;21.50;58.10;;;;;;5081280;28;20379;-68
2023/05/15 12:39:48;;;;;;;;;;;21.50;57.80;;;;;;5083720;28;21324;-69
2023/05/15 12:42:14;;;;;;;;;;;21.50;57.60;;;;;;5085694;28;20328;-68
2023/05/15 12:44:39;;;;;;;;;;;21.50;57.60;;;;;;5082056;28;20485;-69
2023/05/15 12:47:05;;;;;;;;;;;21.50;57.80;;;;;;5083060;28;19931;-68
2023/05/15 12:49:34;;;;;;;;;;;21.50;57.90;;;;;;5081088;28;19928;-69
2023/05/15 12:52:06;;;;;;;;;;;21.50;57.90;;;;;;5103051;27;19932;-68
2023/05/15 12:54:37;;;;;;;;;;;21.50;57.90;;;;;;5072813;28;19920;-69
2023/05/15 12:57:03;;;;;;;;;;;21.50;57.70;;;;;;5070751;28;19921;-69
2023/05/15 12:59:28;;;;;;;;;;;21.50;57.60;;;;;;5089450;28;19950;-69
2023/05/15 13:01:54;;;;;;;;;;;21.50;57.40;;;;;;5068340;28;20393;-69
2023/05/15 13:04:19;;;;;;;;;;;21.50;57.20;;;;;;5069078;28;20435;-70
2023/05/15 13:06:45;;;;;;;;;;;21.50;57.10;;;;;;5069924;28;20583;-69
2023/05/15 13:09:11;;;;;;;;;;;21.60;57.10;;;;;;5070561;28;20444;-69
2023/05/15 13:11:41;;;;;;;;;;;21.60;57.00;;;;;;5076148;28;19964;-69
2023/05/15 13:14:08;;;;;;;;;;;21.60;56.90;;;;;;5074691;28;19931;-70
2023/05/15 13:16:35;;;;;;;;;;;21.50;56.70;;;;;;5078287;28;19927;-69
2023/05/15 13:19:00;;;;;;;;;;;21.60;56.60;;;;;;5072049;28;19943;-69
2023/05/15 13:21:26;;;;;;;;;;;21.60;56.60;;;;;;5078162;28;19928;-70
2023/05/15 13:23:51;;;;;;;;;;;21.60;56.60;;;;;;5073492;28;20398;-70
2023/05/15 13:26:17;;;;;;;;;;;21.50;56.90;;;;;;5081565;28;20219;-72
2023/05/15 13:28:42;;;;;;;;;;;21.60;56.90;;;;;;5086139;28;19927;-68
2023/05/15 13:31:08;;;;;;;;;;;21.60;57.00;;;;;;5084046;28;19927;-72
2023/05/15 13:33:34;;;;;;;;;;;21.60;57.20;;;;;;5087405;28;19924;-68
2023/05/15 13:36:00;;;;;;;;;;;21.70;57.30;;;;;;5083784;28;19924;-74
2023/05/15 13:38:25;;;;;;;;;;;21.70;57.10;;;;;;5086711;28;19974;-69
2023/05/15 13:40:51;;;;;;;;;;;21.70;57.10;;;;;;5087426;28;19920;-70
2023/05/15 13:43:16;;;;;;;;;;;21.80;57.10;;;;;;5083536;28;20192;-68
2023/05/15 13:45:42;;;;;;;;;;;21.70;57.00;;;;;;5089698;28;19992;-68
2023/05/15 13:48:08;;;;;;;;;;;21.80;57.00;;;;;;5087143;28;19919;-68
2023/05/15 13:50:33;;;;;;;;;;;21.70;56.80;;;;;;5093395;28;20012;-68
2023/05/15 13:52:59;;;;;;;;;;;21.80;56.60;;;;;;5108250;28;19923;-70
2023/05/15 13:55:24;;;;;;;;;;;21.70;56.30;;;;;;5092120;28;19947;-70
2023/05/15 13:57:51;;;;;;;;;;;21.80;55.70;;;;;;5105119;28;19950;-70
2023/05/15 14:00:17;;;;;;;;;;;21.80;56.20;;;;;;5105829;28;19924;-69
2023/05/15 14:02:43;;;;;;;;;;;21.80;55.80;;;;;;5105913;28;19919;-73
2023/05/15 14:05:09;;;;;;;;;;;21.80;55.70;;;;;;5089704;28;20371;-74
2023/05/15 14:07:35;;;;;;;;;;;21.80;55.40;;;;;;5087853;28;19927;-69
2023/05/15 14:10:01;;;;;;;;;;;21.80;55.50;;;;;;5088155;28;20464;-71
2023/05/15 14:12:26;;;;;;;;;;;21.80;55.30;;;;;;5089943;28;19923;-67
2023/05/15 14:14:52;;;;;;;;;;;21.70;55.00;;;;;;5088042;28;19928;-70
2023/05/15 14:17:17;;;;;;;;;;;21.80;55.10;;;;;;5090421;28;19923;-70
2023/05/15 14:19:43;;;;;;;;;;;21.70;55.50;;;;;;5090606;28;20379;-71
2023/05/15 14:22:08;;;;;;;;;;;21.80;55.30;;;;;;5089209;28;19927;-71
2023/05/15 14:24:34;;;;;;;;;;;21.80;55.10;;;;;;5089752;28;19920;-71
2023/05/15 14:27:00;;;;;;;;;;;21.80;55.00;;;;;;5089280;28;20422;-71
2023/05/15 14:29:26;;;;;;;;;;;21.70;54.90;;;;;;5108142;28;19920;-73
2023/05/15 14:31:51;;;;;;;;;;;21.80;54.90;;;;;;5088782;28;20351;-72
2023/05/15 14:34:17;;;;;;;;;;;21.80;55.00;;;;;;5089786;27;19928;-70